Time;durP1;ratioP1;P1;durP2;ratioP2;P2;SDS_P1;SDS_P2;PMS_P1;PMS_P2;Temp;Humidity;BMP_temperature;BMP_pressure;BME280_temperature;BME280_humidity;BME280_pressure;Samples;Min_cycle;Max_cycle;Signal;HPM_P1;HPM_P2
2023/01/22 00:01:11;;;;;;;66.43;54.50;;;12.00;61.70;;;;;;4951154;28;86881;-52
2023/01/22 00:03:38;;;;;;;64.22;54.22;;;12.00;61.80;;;;;;4939349;28;90132;-54
2023/01/22 00:06:05;;;;;;;68.25;55.88;;;12.10;61.60;;;;;;4946451;28;86843;-53
2023/01/22 00:08:31;;;;;;;67.75;55.20;;;12.10;61.60;;;;;;4949265;28;85642;-48
2023/01/22 00:10:57;;;;;;;67.00;55.15;;;12.10;61.60;;;;;;4942645;28;85671;-53
2023/01/22 00:13:24;;;;;;;68.45;55.17;;;12.10;61.60;;;;;;4952959;28;87734;-50
2023/01/22 00:15:50;;;;;;;68.57;55.88;;;12.00;61.50;;;;;;4946943;28;87057;-49
2023/01/22 00:18:16;;;;;;;65.53;54.95;;;12.10;61.40;;;;;;4949976;28;85605;-54
2023/01/22 00:20:48;;;;;;;70.05;56.28;;;12.00;61.50;;;;;;4948462;28;86807;-52
2023/01/22 00:23:14;;;;;;;68.68;56.13;;;12.00;61.50;;;;;;4949858;28;87124;-54
2023/01/22 00:25:40;;;;;;;70.20;56.45;;;12.00;61.50;;;;;;4948664;28;86241;-54
2023/01/22 00:28:06;;;;;;;69.75;55.60;;;12.00;61.50;;;;;;4940780;28;86118;-54
2023/01/22 00:30:32;;;;;;;68.18;56.65;;;12.00;61.50;;;;;;4945174;28;85589;-55
2023/01/22 00:32:58;;;;;;;68.17;56.47;;;11.90;61.50;;;;;;4947303;28;86191;-55
2023/01/22 00:35:24;;;;;;;70.20;55.65;;;11.90;61.50;;;;;;4945368;28;87038;-54
2023/01/22 00:37:49;;;;;;;70.38;56.80;;;11.90;61.50;;;;;;4945924;28;86927;-51
2023/01/22 00:40:16;;;;;;;68.55;56.22;;;11.80;61.60;;;;;;4940243;28;89420;-53
2023/01/22 00:42:42;;;;;;;66.13;55.47;;;11.90;61.80;;;;;;4949752;28;87902;-54
2023/01/22 00:45:08;;;;;;;66.10;55.03;;;11.90;61.50;;;;;;4949074;28;88658;-53
2023/01/22 00:47:34;;;;;;;67.68;55.53;;;12.00;61.50;;;;;;4945368;28;87663;-53
2023/01/22 00:50:01;;;;;;;68.22;55.00;;;11.90;61.40;;;;;;4945634;28;88395;-55
2023/01/22 00:52:26;;;;;;;69.93;55.93;;;11.90;61.30;;;;;;4947597;28;87301;-50
2023/01/22 00:54:52;;;;;;;65.82;55.08;;;12.00;61.60;;;;;;4949486;28;88475;-48
2023/01/22 00:57:20;;;;;;;64.97;55.15;;;11.90;61.60;;;;;;4948354;28;87048;-54
2023/01/22 00:59:47;;;;;;;68.72;55.38;;;11.90;61.50;;;;;;4940156;28;85574;-53
2023/01/22 01:02:13;;;;;;;69.25;55.92;;;11.90;62.30;;;;;;4952666;28;85770;-52
2023/01/22 01:04:38;;;;;;;65.30;54.08;;;11.90;61.70;;;;;;4944596;28;87647;-48
2023/01/22 01:07:04;;;;;;;68.25;55.88;;;11.90;61.50;;;;;;4944732;28;86638;-52
2023/01/22 01:09:30;;;;;;;63.70;53.65;;;11.90;61.20;;;;;;4943619;28;85308;-51
2023/01/22 01:11:56;;;;;;;65.75;55.42;;;11.90;61.40;;;;;;4946536;28;87078;-54
2023/01/22 01:14:22;;;;;;;66.00;54.80;;;11.90;61.50;;;;;;4945301;28;87684;-54
2023/01/22 01:16:49;;;;;;;67.18;55.78;;;11.90;61.40;;;;;;4939669;28;86327;-53
2023/01/22 01:19:16;;;;;;;67.00;55.73;;;11.90;61.40;;;;;;4950748;28;87930;-51
2023/01/22 01:21:42;;;;;;;66.20;55.40;;;11.90;61.50;;;;;;4947321;28;87468;-53
2023/01/22 01:24:09;;;;;;;65.38;54.67;;;11.90;61.40;;;;;;4959735;28;88493;-54
2023/01/22 01:26:35;;;;;;;67.95;55.20;;;11.80;61.20;;;;;;4948955;28;85467;-53
2023/01/22 01:29:03;;;;;;;64.70;54.35;;;11.80;61.40;;;;;;4951661;28;85556;-55
2023/01/22 01:31:29;;;;;;;64.82;54.50;;;11.90;61.40;;;;;;4955178;28;86021;-54
2023/01/22 01:33:55;;;;;;;64.38;53.95;;;11.90;61.30;;;;;;4944178;28;86538;-54
2023/01/22 01:36:23;;;;;;;63.17;53.88;;;11.90;61.30;;;;;;4944462;28;86702;-46
2023/01/22 01:38:50;;;;;;;63.10;53.45;;;11.80;61.20;;;;;;4954880;28;85750;-53
2023/01/22 01:41:19;;;;;;;62.95;53.55;;;11.80;61.20;;;;;;4949105;28;87754;-51
2023/01/22 01:43:46;;;;;;;66.33;53.83;;;11.80;61.00;;;;;;4944648;28;87235;-54
2023/01/22 01:46:23;;;;;;;62.50;53.10;;;11.90;61.30;;;;;;4943687;28;86876;-53
2023/01/22 01:48:54;;;;;;;63.75;54.28;;;11.90;61.10;;;;;;4951670;28;85848;-54
2023/01/22 01:51:32;;;;;;;63.60;53.73;;;11.80;61.00;;;;;;4946094;28;86265;-53
2023/01/22 01:54:01;;;;;;;62.13;53.80;;;11.80;61.10;;;;;;4942452;28;88440;-52
2023/01/22 01:56:32;;;;;;;64.57;54.05;;;11.80;61.50;;;;;;4941043;28;86666;-55
2023/01/22 01:59:04;;;;;;;60.88;52.70;;;11.80;61.10;;;;;;4946651;28;85896;-52
2023/01/22 02:01:30;;;;;;;64.60;53.70;;;11.80;61.20;;;;;;4949260;28;87723;-54
2023/01/22 02:03:56;;;;;;;62.85;53.25;;;11.80;61.30;;;;;;4936669;28;88298;-53
2023/01/22 02:06:22;;;;;;;63.55;53.67;;;11.80;61.30;;;;;;4949232;28;86481;-50
2023/01/22 02:08:49;;;;;;;63.13;53.33;;;11.70;61.10;;;;;;4940015;28;87040;-54
2023/01/22 02:11:17;;;;;;;63.43;53.17;;;11.80;61.20;;;;;;4939123;28;86128;-53
2023/01/22 02:14:01;;;;;;;63.63;53.10;;;11.80;61.30;;;;;;4936269;28;89780;-53
2023/01/22 02:16:27;;;;;;;62.47;53.20;;;11.80;61.00;;;;;;4939827;28;86541;-52
2023/01/22 02:18:52;;;;;;;63.73;54.50;;;11.80;61.20;;;;;;4937758;28;86780;-52
2023/01/22 02:21:34;;;;;;;63.40;53.53;;;11.80;60.90;;;;;;4948311;28;87756;-51
2023/01/22 02:24:00;;;;;;;;;;;11.80;60.90;;;;;;4949665;28;87112;-53
2023/01/22 02:26:26;;;;;;;63.47;54.13;;;11.80;61.00;;;;;;4951426;28;86410;-54
2023/01/22 02:28:52;;;;;;;62.95;53.53;;;11.80;61.10;;;;;;4943487;28;88431;-51
2023/01/22 02:31:17;;;;;;;63.03;54.00;;;11.80;61.00;;;;;;4945588;28;85983;-52
2023/01/22 02:33:43;;;;;;;63.05;54.20;;;11.80;61.20;;;;;;4946998;28;85632;-54
2023/01/22 02:36:09;;;;;;;63.92;53.55;;;11.80;60.90;;;;;;4948721;28;86317;-51
2023/01/22 02:38:34;;;;;;;61.10;53.63;;;11.80;60.70;;;;;;4940083;28;91063;-54
2023/01/22 02:41:00;;;;;;;60.95;52.45;;;11.80;60.90;;;;;;4940758;28;86746;-49
2023/01/22 02:43:26;;;;;;;62.73;53.13;;;11.80;60.90;;;;;;4940373;28;86885;-51
2023/01/22 02:45:54;;;;;;;63.33;52.87;;;11.90;60.70;;;;;;4945520;28;86960;-53
2023/01/22 02:48:20;;;;;;;62.65;54.33;;;12.00;60.70;;;;;;4943610;28;86893;-49
2023/01/22 02:50:46;;;;;;;63.17;53.65;;;11.90;60.40;;;;;;4944058;28;86280;-53
2023/01/22 02:53:12;;;;;;;61.40;53.40;;;12.00;60.00;;;;;;4942265;28;87348;-54
2023/01/22 02:55:38;;;;;;;61.87;53.87;;;12.00;60.30;;;;;;4945713;28;86495;-47
2023/01/22 02:58:04;;;;;;;63.30;53.63;;;11.90;60.10;;;;;;4945924;28;86157;-49
2023/01/22 03:00:30;;;;;;;61.93;53.20;;;12.00;60.20;;;;;;4953324;28;86479;-55
2023/01/22 03:02:55;;;;;;;60.90;52.73;;;12.00;59.90;;;;;;4945600;28;86572;-51
2023/01/22 03:05:22;;;;;;;62.50;53.30;;;12.00;59.90;;;;;;4936256;28;87525;-53
2023/01/22 03:07:47;;;;;;;63.25;53.70;;;12.00;60.00;;;;;;4953132;28;86287;-53
2023/01/22 03:10:17;;;;;;;61.30;52.92;;;12.00;59.90;;;;;;4933607;28;86814;-53
2023/01/22 03:21:15;;;;;;;61.77;53.40;;;12.00;59.80;;;;;;4943549;28;86879;-55
2023/01/22 03:23:53;;;;;;;62.67;53.10;;;12.00;59.50;;;;;;4951531;28;88884;-53
2023/01/22 03:26:21;;;;;;;62.00;53.55;;;12.00;60.10;;;;;;4949992;28;85866;-54
2023/01/22 03:28:48;;;;;;;68.38;54.70;;;11.90;60.00;;;;;;4949469;28;85828;-51
2023/01/22 03:31:14;;;;;;;65.72;54.55;;;12.00;59.90;;;;;;4953277;28;90163;-52
2023/01/22 03:33:41;;;;;;;66.95;55.15;;;12.00;59.70;;;;;;4943803;28;86964;-52
2023/01/22 03:36:10;;;;;;;65.93;55.90;;;11.90;59.70;;;;;;4946090;28;86861;-48
2023/01/22 03:38:36;;;;;;;65.57;54.63;;;11.90;59.70;;;;;;4946057;28;86327;-51
2023/01/22 03:41:07;;;;;;;64.68;54.55;;;11.90;60.00;;;;;;4937273;28;86201;-53
2023/01/22 03:43:33;;;;;;;69.28;55.28;;;11.90;59.80;;;;;;4950156;28;86515;-51
2023/01/22 03:46:04;;;;;;;69.43;55.53;;;11.90;59.60;;;;;;4940972;28;87711;-51
2023/01/22 03:48:30;;;;;;;64.37;53.97;;;11.90;59.50;;;;;;4939136;28;86788;-55
2023/01/22 03:50:55;;;;;;;68.97;55.30;;;11.80;59.40;;;;;;4939176;28;86808;-53
2023/01/22 03:53:21;;;;;;;66.93;54.83;;;11.90;60.00;;;;;;4945775;28;86732;-53
2023/01/22 03:55:56;;;;;;;69.20;54.73;;;11.90;59.80;;;;;;4948135;28;86014;-55
2023/01/22 03:58:22;;;;;;;65.28;54.92;;;11.90;59.70;;;;;;4953657;28;86639;-51
2023/01/22 04:00:47;;;;;;;67.93;54.80;;;12.00;59.80;;;;;;4939272;28;87105;-53
2023/01/22 04:03:13;;;;;;;65.60;55.07;;;12.00;59.60;;;;;;4944362;28;86157;-54
2023/01/22 04:05:39;;;;;;;68.57;55.63;;;12.00;59.50;;;;;;4950009;28;86080;-53
2023/01/22 04:08:04;;;;;;;67.90;54.17;;;12.00;59.60;;;;;;4947271;28;86550;-53
2023/01/22 04:10:30;;;;;;;67.55;54.50;;;12.00;59.50;;;;;;4946167;28;85936;-54
2023/01/22 04:12:55;;;;;;;67.60;56.10;;;12.00;59.60;;;;;;4940726;28;85776;-53
2023/01/22 04:15:21;;;;;;;68.30;55.22;;;11.90;59.40;;;;;;4950082;28;86486;-54
2023/01/22 04:17:47;;;;;;;68.40;54.95;;;11.90;59.70;;;;;;4943796;28;91725;-53
2023/01/22 04:20:13;;;;;;;67.87;55.40;;;11.90;59.70;;;;;;4944822;28;86550;-52
2023/01/22 04:22:38;;;;;;;68.13;54.67;;;11.90;59.80;;;;;;4944106;28;86766;-50
2023/01/22 04:25:04;;;;;;;66.63;55.37;;;11.90;59.50;;;;;;4945426;28;86377;-55
2023/01/22 04:27:30;;;;;;;70.43;55.90;;;12.00;59.60;;;;;;4941395;28;88306;-55
2023/01/22 04:29:55;;;;;;;68.93;55.37;;;12.00;59.50;;;;;;4945863;28;87730;-53
2023/01/22 04:32:21;;;;;;;68.90;55.03;;;12.00;59.50;;;;;;4941710;28;86306;-53
2023/01/22 04:34:47;;;;;;;68.93;54.90;;;12.00;59.40;;;;;;4944408;28;85357;-52
2023/01/22 04:37:12;;;;;;;68.90;56.27;;;12.00;59.70;;;;;;4940662;28;90231;-49
2023/01/22 04:39:38;;;;;;;68.83;56.27;;;12.00;59.40;;;;;;4941389;28;86319;-51
2023/01/22 04:42:04;;;;;;;70.70;56.23;;;12.00;59.60;;;;;;4943963;28;86869;-54
2023/01/22 04:44:29;;;;;;;74.57;57.10;;;12.00;59.60;;;;;;4944316;28;88848;-53
2023/01/22 04:46:55;;;;;;;69.23;55.07;;;12.10;59.50;;;;;;4954865;28;86298;-52
2023/01/22 04:49:20;;;;;;;75.60;57.93;;;12.00;59.50;;;;;;4946138;28;88762;-54
2023/01/22 04:51:46;;;;;;;71.77;56.90;;;12.00;59.50;;;;;;4948257;28;86720;-53
2023/01/22 04:54:12;;;;;;;72.03;56.37;;;12.00;59.60;;;;;;4954866;28;85840;-54
2023/01/22 04:56:37;;;;;;;70.93;56.47;;;12.00;59.50;;;;;;4936471;28;87490;-54
2023/01/22 04:59:03;;;;;;;70.45;55.90;;;12.00;59.50;;;;;;4937584;28;89375;-48
2023/01/22 05:01:29;;;;;;;71.53;56.00;;;12.00;59.50;;;;;;4946737;28;86308;-49
2023/01/22 05:03:54;;;;;;;77.80;58.03;;;12.00;59.50;;;;;;4936356;28;88210;-55
2023/01/22 05:06:20;;;;;;;69.53;56.00;;;12.00;59.20;;;;;;4940025;28;86922;-53
2023/01/22 05:08:45;;;;;;;73.05;57.35;;;12.00;59.30;;;;;;4933888;28;88551;-54
2023/01/22 05:11:11;;;;;;;76.27;57.67;;;12.00;59.30;;;;;;4936308;28;87358;-54
2023/01/22 05:13:37;;;;;;;74.03;56.97;;;12.00;59.50;;;;;;4945238;28;85953;-53
2023/01/22 05:16:02;;;;;;;74.13;57.57;;;12.00;59.40;;;;;;4943513;28;86892;-54
2023/01/22 05:18:28;;;;;;;71.75;57.08;;;12.00;59.30;;;;;;4946716;28;87313;-53
2023/01/22 05:20:54;;;;;;;76.27;58.27;;;12.00;59.30;;;;;;4939070;28;85913;-53
2023/01/22 05:23:19;;;;;;;73.60;57.17;;;12.00;59.40;;;;;;4943792;28;86840;-50
2023/01/22 05:25:49;;;;;;;73.85;57.75;;;12.00;59.50;;;;;;4933771;28;85494;-54
2023/01/22 05:28:14;;;;;;;69.67;57.00;;;12.00;59.30;;;;;;4939292;28;86012;-53
2023/01/22 05:30:40;;;;;;;70.37;56.87;;;12.00;59.10;;;;;;4937690;28;87616;-54
2023/01/22 05:33:05;;;;;;;71.87;56.50;;;12.00;59.30;;;;;;4933591;28;86538;-53
2023/01/22 05:35:31;;;;;;;68.35;56.33;;;12.10;59.10;;;;;;4943422;28;85930;-53
2023/01/22 05:37:57;;;;;;;72.43;56.63;;;12.10;59.20;;;;;;4943296;28;85539;-54
2023/01/22 05:40:23;;;;;;;74.60;56.35;;;12.00;59.10;;;;;;4940171;28;88871;-48
2023/01/22 05:42:49;;;;;;;73.50;57.70;;;12.00;59.20;;;;;;4945498;28;90884;-54
2023/01/22 05:45:14;;;;;;;71.83;57.60;;;12.00;59.20;;;;;;4950292;28;87484;-48
2023/01/22 05:47:40;;;;;;;70.47;57.17;;;12.00;58.90;;;;;;4939815;28;86895;-54
2023/01/22 05:50:06;;;;;;;73.93;56.43;;;12.00;58.90;;;;;;4954631;28;86741;-52
2023/01/22 05:52:31;;;;;;;71.47;57.40;;;12.00;59.30;;;;;;4938260;28;86745;-50
2023/01/22 05:54:58;;;;;;;73.40;58.40;;;11.90;59.10;;;;;;4943124;28;86847;-52
2023/01/22 05:57:25;;;;;;;73.40;56.67;;;11.90;59.50;;;;;;4939863;28;86070;-50
2023/01/22 05:59:51;;;;;;;82.43;59.27;;;11.90;59.40;;;;;;4933713;28;88665;-53
2023/01/22 06:02:17;;;;;;;79.10;59.57;;;11.90;59.00;;;;;;4939940;28;91019;-51
2023/01/22 06:04:42;;;;;;;79.30;58.40;;;11.90;59.40;;;;;;4941339;28;89364;-52
2023/01/22 06:07:08;;;;;;;75.78;56.58;;;11.90;59.30;;;;;;4935843;28;87200;-54
2023/01/22 06:09:34;;;;;;;77.60;58.27;;;11.80;59.40;;;;;;4936705;28;94272;-52
2023/01/22 06:12:00;;;;;;;75.27;57.97;;;11.80;59.20;;;;;;4945236;28;91757;-54
2023/01/22 06:14:25;;;;;;;76.70;58.27;;;11.80;59.30;;;;;;4944857;28;86265;-50
2023/01/22 06:16:51;;;;;;;74.23;57.47;;;11.90;59.40;;;;;;4931078;28;86074;-48
2023/01/22 06:19:16;;;;;;;73.73;58.33;;;11.80;59.30;;;;;;4936749;28;86989;-49
2023/01/22 06:21:42;;;;;;;76.80;57.23;;;11.90;59.30;;;;;;4939233;28;86281;-54
2023/01/22 06:24:08;;;;;;;75.37;57.27;;;12.00;59.20;;;;;;4934255;28;87317;-51
2023/01/22 06:26:34;;;;;;;74.80;58.20;;;11.90;59.30;;;;;;4938296;28;87128;-48
2023/01/22 06:29:00;;;;;;;74.03;57.40;;;11.90;59.20;;;;;;4943368;28;86605;-49
2023/01/22 06:31:25;;;;;;;74.93;57.73;;;11.90;59.20;;;;;;4952419;28;86780;-54
2023/01/22 06:33:53;;;;;;;71.13;57.07;;;11.70;59.30;;;;;;4939838;28;86814;-53
2023/01/22 06:36:19;;;;;;;74.67;57.27;;;11.80;59.70;;;;;;4943284;28;87653;-54
2023/01/22 06:38:45;;;;;;;75.32;56.97;;;11.90;59.70;;;;;;4950142;28;87389;-52
2023/01/22 06:41:10;;;;;;;71.50;56.13;;;11.90;59.40;;;;;;4932099;28;86476;-49
2023/01/22 06:43:36;;;;;;;72.13;56.40;;;11.90;59.40;;;;;;4934555;28;87106;-52
2023/01/22 06:46:02;;;;;;;71.37;56.53;;;11.90;59.60;;;;;;4947604;28;89262;-46
2023/01/22 06:48:28;;;;;;;72.30;56.07;;;11.90;59.50;;;;;;4947818;28;88259;-50
2023/01/22 06:51:00;;;;;;;71.97;56.70;;;11.90;59.40;;;;;;4947944;28;86416;-53
2023/01/22 06:53:26;;;;;;;;;;;11.90;59.60;;;;;;4952465;28;88788;-51
2023/01/22 06:55:51;;;;;;;70.13;54.97;;;11.90;59.50;;;;;;4955519;28;87171;-51
2023/01/22 06:58:17;;;;;;;68.20;55.40;;;11.90;59.30;;;;;;4952274;28;87986;-52
2023/01/22 07:00:42;;;;;;;70.47;55.07;;;11.90;59.60;;;;;;4933673;28;87086;-49
2023/01/22 07:03:08;;;;;;;68.07;54.72;;;11.90;59.60;;;;;;4942059;28;86281;-48
2023/01/22 07:05:34;;;;;;;69.03;56.10;;;11.90;59.40;;;;;;4946533;28;86904;-52
2023/01/22 07:08:01;;;;;;;70.27;55.73;;;11.90;59.40;;;;;;4942222;28;86777;-51
2023/01/22 07:10:26;;;;;;;66.18;54.80;;;11.90;59.30;;;;;;4932700;28;88144;-53
2023/01/22 07:13:00;;;;;;;67.88;55.28;;;11.90;59.10;;;;;;4943977;28;85941;-49
2023/01/22 07:15:26;;;;;;;65.70;54.27;;;11.80;58.90;;;;;;4950339;28;85569;-52
2023/01/22 07:17:52;;;;;;;66.90;54.37;;;11.70;59.00;;;;;;4945308;28;87493;-53
2023/01/22 07:20:19;;;;;;;68.30;54.07;;;11.80;59.40;;;;;;4938959;28;87966;-49
2023/01/22 07:22:45;;;;;;;66.80;53.88;;;11.90;59.90;;;;;;4955294;28;85117;-51
2023/01/22 07:25:11;;;;;;;64.20;53.28;;;11.90;59.40;;;;;;4948042;28;85809;-50
2023/01/22 07:27:37;;;;;;;66.40;53.30;;;12.00;59.20;;;;;;4932044;28;89452;-49
2023/01/22 07:30:04;;;;;;;65.90;52.08;;;12.00;59.30;;;;;;4934777;28;86496;-52
2023/01/22 07:32:30;;;;;;;63.60;53.17;;;12.00;59.30;;;;;;4940666;28;87332;-48
2023/01/22 07:34:55;;;;;;;63.07;52.67;;;12.00;59.30;;;;;;4937687;28;86898;-53
2023/01/22 07:37:21;;;;;;;63.00;52.83;;;12.10;59.20;;;;;;4923946;28;87489;-54
2023/01/22 07:39:46;;;;;;;63.03;52.22;;;12.10;58.80;;;;;;4935349;28;86334;-51
2023/01/22 07:42:13;;;;;;;60.03;51.60;;;12.10;58.90;;;;;;4936995;28;87049;-50
2023/01/22 07:44:41;;;;;;;58.65;52.03;;;12.10;59.10;;;;;;4933867;28;91458;-52
2023/01/22 07:47:08;;;;;;;64.90;51.47;;;12.10;58.90;;;;;;4947590;28;85919;-54
2023/01/22 07:49:33;;;;;;;61.53;51.63;;;12.00;58.90;;;;;;4942771;28;88366;-49
2023/01/22 07:51:59;;;;;;;57.17;50.55;;;12.00;59.30;;;;;;4948109;28;87446;-53
2023/01/22 07:54:25;;;;;;;61.80;51.85;;;12.00;59.30;;;;;;4943042;28;88007;-50
2023/01/22 07:56:50;;;;;;;61.78;52.08;;;12.10;59.20;;;;;;4935852;28;86980;-50
2023/01/22 07:59:16;;;;;;;60.08;50.85;;;12.10;59.30;;;;;;4947989;28;90389;-50
2023/01/22 08:01:42;;;;;;;62.50;51.38;;;12.20;59.30;;;;;;4929594;28;88122;-50
2023/01/22 08:04:07;;;;;;;60.53;51.83;;;12.20;59.30;;;;;;4943714;28;85650;-53
2023/01/22 08:06:33;;;;;;;58.17;51.17;;;12.20;59.40;;;;;;4937285;28;89771;-49
2023/01/22 08:08:59;;;;;;;61.25;51.15;;;12.20;59.20;;;;;;4938592;28;94037;-48
2023/01/22 08:11:26;;;;;;;60.15;51.97;;;12.20;59.40;;;;;;4946225;28;86733;-51
2023/01/22 08:13:51;;;;;;;57.40;50.13;;;12.20;59.50;;;;;;4952388;28;86199;-48
2023/01/22 08:16:17;;;;;;;63.37;50.60;;;12.20;59.20;;;;;;4942959;28;87791;-52
2023/01/22 08:18:43;;;;;;;57.70;50.45;;;12.20;59.60;;;;;;4938062;28;88772;-55
2023/01/22 08:21:08;;;;;;;59.70;50.88;;;12.20;59.50;;;;;;4923817;28;89524;-47
2023/01/22 08:23:34;;;;;;;58.13;51.23;;;12.30;59.50;;;;;;4936533;28;90053;-49
2023/01/22 08:26:02;;;;;;;60.15;51.17;;;12.30;59.40;;;;;;4931604;28;88520;-52
2023/01/22 08:28:29;;;;;;;56.03;49.78;;;12.30;59.70;;;;;;4942210;28;86760;-50
2023/01/22 08:30:59;;;;;;;58.90;50.33;;;12.30;59.20;;;;;;4947448;28;88242;-54
2023/01/22 08:33:25;;;;;;;58.13;50.50;;;12.40;59.20;;;;;;4945186;28;86180;-53
2023/01/22 08:35:51;;;;;;;56.17;49.95;;;12.30;59.30;;;;;;4953621;28;86240;-49
2023/01/22 08:38:17;;;;;;;57.33;50.03;;;12.30;59.20;;;;;;4953301;28;86458;-51
2023/01/22 08:40:43;;;;;;;57.47;50.65;;;12.20;59.30;;;;;;4952151;28;85880;-54
2023/01/22 08:43:08;;;;;;;56.75;49.72;;;12.20;59.50;;;;;;4947924;28;85374;-46
2023/01/22 08:45:34;;;;;;;56.33;49.70;;;12.30;59.50;;;;;;4950349;28;86922;-54
2023/01/22 08:48:00;;;;;;;58.03;49.63;;;12.20;59.40;;;;;;4946651;28;86562;-50
2023/01/22 08:50:27;;;;;;;56.10;49.97;;;12.20;59.50;;;;;;4949389;28;88466;-47
2023/01/22 08:52:56;;;;;;;56.33;49.10;;;12.10;59.90;;;;;;4951432;28;86966;-53
2023/01/22 08:55:21;;;;;;;55.85;49.75;;;12.10;59.70;;;;;;4947204;28;85952;-47
2023/01/22 08:57:52;;;;;;;56.35;49.55;;;12.10;59.70;;;;;;4946928;28;88112;-50
2023/01/22 09:00:18;;;;;;;55.97;49.47;;;12.20;59.60;;;;;;4952999;28;85356;-51
2023/01/22 09:02:44;;;;;;;55.38;48.88;;;12.20;59.60;;;;;;4953061;28;86558;-54
2023/01/22 09:05:09;;;;;;;55.42;49.17;;;12.20;59.80;;;;;;4941543;28;87431;-50
2023/01/22 09:07:35;;;;;;;56.28;49.17;;;12.10;59.70;;;;;;4946599;28;85952;-51
2023/01/22 09:10:01;;;;;;;55.30;49.30;;;12.10;59.70;;;;;;4946428;28;86042;-53
2023/01/22 09:12:26;;;;;;;54.63;48.63;;;12.10;59.60;;;;;;4941861;28;86179;-53
2023/01/22 09:14:52;;;;;;;54.78;48.75;;;12.20;59.60;;;;;;4948602;28;87889;-49
2023/01/22 09:17:18;;;;;;;54.53;48.63;;;12.20;59.50;;;;;;4946524;28;86027;-51
2023/01/22 09:19:43;;;;;;;55.85;48.78;;;12.20;59.40;;;;;;4952907;28;86449;-52
2023/01/22 09:22:09;;;;;;;54.78;48.88;;;12.20;59.50;;;;;;4943294;28;85956;-48
2023/01/22 09:24:34;;;;;;;57.80;48.90;;;12.20;59.30;;;;;;4946783;28;87712;-50
2023/01/22 09:27:00;;;;;;;55.75;48.83;;;12.20;59.30;;;;;;4948158;28;86066;-50
2023/01/22 09:29:26;;;;;;;55.25;49.20;;;12.20;59.60;;;;;;4948787;28;85998;-47
2023/01/22 09:31:52;;;;;;;54.92;48.63;;;12.20;59.50;;;;;;4953000;28;87934;-51
2023/01/22 09:34:17;;;;;;;55.25;48.78;;;12.20;59.30;;;;;;4947845;28;89121;-53
2023/01/22 09:36:44;;;;;;;55.00;49.00;;;12.20;59.40;;;;;;4954089;28;86567;-52
2023/01/22 09:39:10;;;;;;;55.63;48.80;;;12.20;59.10;;;;;;4961900;28;85524;-48
2023/01/22 09:41:43;;;;;;;53.88;48.08;;;12.30;59.30;;;;;;4949207;28;85988;-49
2023/01/22 09:44:41;;;;;;;54.58;48.65;;;12.40;59.20;;;;;;4950705;28;86849;-51
2023/01/22 09:47:14;;;;;;;54.53;48.72;;;12.30;59.20;;;;;;4948120;28;87015;-52
2023/01/22 09:49:50;;;;;;;54.20;47.97;;;12.20;59.20;;;;;;4936583;28;85378;-50
2023/01/22 09:52:16;;;;;;;54.22;48.15;;;12.30;59.50;;;;;;4941538;28;86474;-54
2023/01/22 09:54:42;;;;;;;54.05;48.15;;;12.30;59.10;;;;;;4940444;28;87854;-51
2023/01/22 09:57:12;;;;;;;54.13;48.00;;;12.30;58.90;;;;;;4951816;28;88630;-52
2023/01/22 09:59:51;;;;;;;53.50;47.75;;;12.40;59.10;;;;;;4951391;28;88207;-50
2023/01/22 10:02:28;;;;;;;53.80;47.95;;;12.40;59.00;;;;;;4946765;28;85669;-49
2023/01/22 10:05:03;;;;;;;54.60;48.45;;;12.30;58.90;;;;;;4950832;28;86707;-54
2023/01/22 10:07:37;;;;;;;53.88;48.03;;;12.40;59.10;;;;;;4949652;28;86495;-53
2023/01/22 10:10:19;;;;;;;53.97;48.10;;;12.30;59.10;;;;;;4942839;28;86011;-49
2023/01/22 10:12:52;;;;;;;53.63;47.85;;;12.40;59.10;;;;;;4937173;28;90301;-53
2023/01/22 10:15:21;;;;;;;53.75;47.95;;;12.40;59.10;;;;;;4940097;28;87194;-50
2023/01/22 10:17:47;;;;;;;53.47;47.78;;;12.40;58.90;;;;;;4944870;28;86289;-49
2023/01/22 10:20:14;;;;;;;53.83;48.03;;;12.40;58.90;;;;;;4951988;28;85590;-54
2023/01/22 10:22:40;;;;;;;53.63;47.83;;;12.40;59.00;;;;;;4948821;28;86438;-51
2023/01/22 10:25:12;;;;;;;53.92;48.10;;;12.40;58.90;;;;;;4950747;28;87230;-51
2023/01/22 10:27:38;;;;;;;54.08;47.72;;;12.40;59.00;;;;;;4955537;28;85987;-53
2023/01/22 10:30:13;;;;;;;53.58;47.80;;;12.50;59.00;;;;;;4960526;28;86287;-49
2023/01/22 10:32:38;;;;;;;53.47;47.67;;;12.50;59.00;;;;;;4962245;28;86201;-48
2023/01/22 10:35:10;;;;;;;53.47;47.67;;;12.50;58.70;;;;;;4957540;28;86035;-49
2023/01/22 10:37:49;;;;;;;53.17;47.40;;;12.40;58.80;;;;;;4949557;28;86213;-52
2023/01/22 10:40:33;;;;;;;53.45;47.65;;;12.50;58.90;;;;;;4950173;28;85763;-50
2023/01/22 10:43:03;;;;;;;53.63;47.83;;;12.50;58.60;;;;;;4949984;28;85935;-52
2023/01/22 10:45:29;;;;;;;53.63;47.70;;;12.50;58.70;;;;;;4943378;28;87320;-50
2023/01/22 10:48:17;;;;;;;53.45;47.70;;;12.50;58.80;;;;;;4950012;28;88720;-52
2023/01/22 10:50:44;;;;;;;53.13;47.42;;;12.40;58.90;;;;;;4949192;28;86207;-53
2023/01/22 10:53:27;;;;;;;53.03;47.33;;;12.50;58.70;;;;;;4951505;28;87736;-48
2023/01/22 10:55:57;;;;;;;53.25;47.33;;;12.50;58.70;;;;;;4950096;28;85804;-53
2023/01/22 10:58:26;;;;;;;53.97;48.17;;;12.40;58.80;;;;;;4955011;28;86261;-49
2023/01/22 11:01:19;;;;;;;52.92;47.17;;;12.50;58.70;;;;;;4949248;28;85813;-47
2023/01/22 11:03:45;;;;;;;52.72;47.03;;;12.40;58.90;;;;;;4955829;28;85527;-53
2023/01/22 11:06:19;;;;;;;52.75;47.08;;;12.40;58.90;;;;;;4951627;28;86706;-51
2023/01/22 11:09:06;;;;;;;52.78;47.10;;;12.40;58.80;;;;;;4944249;28;87111;-47
2023/01/22 11:11:41;;;;;;;52.88;47.25;;;12.40;58.80;;;;;;4941482;28;88234;-47
2023/01/22 11:14:34;;;;;;;53.55;47.75;;;12.50;58.70;;;;;;4950085;28;85163;-47
2023/01/22 11:17:25;;;;;;;53.65;47.78;;;12.50;58.60;;;;;;4943663;28;88995;-50
2023/01/22 11:19:59;;;;;;;52.77;47.07;;;12.50;58.70;;;;;;4949345;28;85878;-51
2023/01/22 11:22:36;;;;;;;52.88;47.08;;;12.40;58.80;;;;;;4958332;28;85839;-52
2023/01/22 11:25:02;;;;;;;53.33;47.45;;;12.50;58.70;;;;;;4946650;28;85925;-52
2023/01/22 11:27:51;;;;;;;53.90;47.85;;;12.50;58.70;;;;;;4945623;28;87652;-52
2023/01/22 11:30:52;;;;;;;53.20;47.45;;;12.50;58.60;;;;;;4951185;28;86367;-52
2023/01/22 11:33:34;;;;;;;52.80;47.10;;;12.40;58.60;;;;;;4947666;28;86274;-51
2023/01/22 11:36:12;;;;;;;52.63;46.92;;;12.40;58.80;;;;;;4955002;28;86188;-52
2023/01/22 11:39:00;;;;;;;53.33;47.53;;;12.50;58.70;;;;;;4951354;28;86679;-49
2023/01/22 11:41:47;;;;;;;55.38;47.85;;;12.50;58.60;;;;;;4948154;28;88617;-52
2023/01/22 11:44:34;;;;;;;53.60;47.80;;;12.50;58.50;;;;;;4949807;28;85140;-54
2023/01/22 11:47:23;;;;;;;52.47;46.90;;;12.50;58.50;;;;;;4947749;28;86551;-51
2023/01/22 11:50:06;;;;;;;52.88;47.15;;;12.60;58.30;;;;;;4954858;28;85814;-53
2023/01/22 11:52:47;;;;;;;52.85;47.17;;;12.50;58.60;;;;;;4946230;28;86827;-53
2023/01/22 11:55:15;;;;;;;53.00;47.35;;;12.50;58.60;;;;;;4950419;28;85218;-53
2023/01/22 11:57:45;;;;;;;53.88;47.38;;;12.50;58.70;;;;;;4959722;28;87832;-55
2023/01/22 12:00:35;;;;;;;53.78;47.03;;;12.50;58.50;;;;;;4955508;28;87230;-54
2023/01/22 12:03:19;;;;;;;53.10;47.28;;;12.50;58.60;;;;;;4942952;28;88623;-52
2023/01/22 12:05:55;;;;;;;53.70;47.80;;;12.40;58.70;;;;;;4944203;28;85447;-53
2023/01/22 12:09:07;;;;;;;52.53;46.88;;;12.40;58.70;;;;;;4945974;28;86543;-51
2023/01/22 12:12:00;;;;;;;52.75;47.05;;;12.50;58.60;;;;;;4938997;28;89882;-51
2023/01/22 12:14:37;;;;;;;53.25;47.50;;;12.50;58.60;;;;;;4953347;28;86080;-54
2023/01/22 12:17:24;;;;;;;52.85;47.25;;;12.60;58.30;;;;;;4947829;28;86233;-53
2023/01/22 12:19:55;;;;;;;53.80;48.00;;;12.60;58.30;;;;;;4945916;28;88025;-52
2023/01/22 12:22:36;;;;;;;53.38;47.63;;;12.50;58.60;;;;;;4945593;28;86744;-52
2023/01/22 12:25:29;;;;;;;54.20;47.80;;;12.40;58.80;;;;;;4944763;28;85771;-50
2023/01/22 12:28:07;;;;;;;52.60;46.90;;;12.60;58.90;;;;;;4956232;28;88612;-53
2023/01/22 12:30:49;;;;;;;53.55;47.70;;;12.70;58.60;;;;;;4950954;28;86040;-50
2023/01/22 12:33:21;;;;;;;53.20;47.47;;;12.80;58.30;;;;;;4942907;28;87302;-50
2023/01/22 12:35:50;;;;;;;53.92;48.03;;;12.80;58.00;;;;;;4952065;28;86499;-51
2023/01/22 12:38:39;;;;;;;54.08;48.15;;;12.90;58.10;;;;;;4941878;28;85538;-51
2023/01/22 12:41:29;;;;;;;53.47;47.67;;;12.80;58.00;;;;;;4942942;28;86031;-50
2023/01/22 12:44:15;;;;;;;53.08;47.40;;;12.80;58.10;;;;;;4946723;28;93629;-50
2023/01/22 12:47:26;;;;;;;54.20;48.30;;;12.80;58.20;;;;;;4946573;28;86378;-50